Aérodrome :
LOGIN :

S'inscrire | Disclaimer

   EN    FR    IT 

 










Légende :    VFR   VFR Marginal   IFR   IFR Intensif   IFR Très Intensif
Visi : 
Plafond : 
>= 8 km
>= 3000ft
5 à 8 km
1000 à 3000 ft
1500m à 5 km
500 à 1000 ft
800 à 1500m
200 à 500 ft
< 800m
< 200 ft
Symboles :   Orages  Brouillard  Fortes neiges  Fortes précipitations  Vent > 20 kt
SIGMETs :   Divers  Orages  Givrage  Turbulence  Onde Orograph.  Cendres Volcan.







- Altitude de l'aérodrome : -15 ft
- Code IATA : RTM


EHRD - Rotterdam Zestienhoven

DERNIER METAR :
  • 260325Z AUTO 20005KT 9999 SCT049 12/10 Q1014 NOSIG

METARs EXPIRÉS :
  • 260255Z AUTO 21007KT 180V250 9999 FEW046 13/10 Q1014 NOSIG
  • 260225Z AUTO 21008KT 180V240 8000 NSC 13/10 Q1015 NOSIG
  • 260155Z AUTO 22007KT 6000 NSC 12/10 Q1015 BECMG 9999
  • 260125Z AUTO 20006KT 5000 BR NSC 11/10 Q1015 BECMG 9999 NSW
  • 260055Z AUTO 20005KT 5000 BR NSC 11/10 Q1015 BECMG 9999 NSW

TAF TAF EHRD
Valide du 26 à 00h jusqu'au 27 à 06h UTC


252310Z 2600/2706 22005KT CAVOK
BECMG 2604/2607 24011KT
BECMG 2610/2613 24015G25KT
BECMG 2619/2622 7000 -RA SCT010 BKN015
TEMPO 2621/2624 4000 RA SHRA BKN008 FEW020CB
BECMG 2622/2701 29010KT 9999 NSW SCT040
Pas de NOTAMs connus pour ce terrain.



MET'MAP, la Météo Aéronautique d'un coup d'oeil ! - Copyright ORBIFLY Décembre 2007 - Disclaimer

ORBIFLY MET'MAP TEAM :

Programmation & Développement : Alexandra Zaïnal
Conception & Développement : Baudouin d'Aumeries
Co-Programmation & Développement : Marc-Olivier Méhu
Soutien technique & logistique : Manuel Goepfert

Contact : metmap@orbifly.com




SOURCES & CREDITS :

   NOAA